createdAt,value
2018-03-30T00:02:01.569Z,70.10
2018-03-30T00:04:33.319Z,70.30
2018-03-30T00:07:14.863Z,70.80
2018-03-30T00:10:00.284Z,70.70
2018-03-30T00:12:31.538Z,70.00
2018-03-30T00:15:03.878Z,70.40
2018-03-30T00:17:36.181Z,70.00
2018-03-30T00:20:08.638Z,70.50
2018-03-30T00:22:44.044Z,70.20
2018-03-30T00:25:15.858Z,70.80
2018-03-30T00:27:48.319Z,69.70
2018-03-30T00:30:19.778Z,69.60
2018-03-30T00:32:53.878Z,69.30
2018-03-30T00:35:26.778Z,69.50
2018-03-30T00:37:59.458Z,69.80
2018-03-30T00:40:30.501Z,69.90
2018-03-30T00:43:02.658Z,69.30
2018-03-30T00:45:34.418Z,69.80
2018-03-30T00:48:10.058Z,68.90
2018-03-30T00:50:42.738Z,69.70
2018-03-30T00:53:27.154Z,69.40
2018-03-30T00:55:59.789Z,68.80
2018-03-30T00:58:30.598Z,69.10
2018-03-30T01:01:03.998Z,70.80
2018-03-30T01:03:35.658Z,70.30
2018-03-30T01:06:09.558Z,70.40
2018-03-30T01:08:43.158Z,69.50
2018-03-30T01:11:17.158Z,70.20
2018-03-30T01:13:50.558Z,70.30
2018-03-30T01:16:25.798Z,69.90
2018-03-30T01:18:59.418Z,70.00
2018-03-30T01:21:31.580Z,70.60
2018-03-30T01:24:07.898Z,70.00
2018-03-30T01:26:43.478Z,70.00
2018-03-30T01:29:14.218Z,69.40
2018-03-30T01:31:46.089Z,70.20
2018-03-30T01:34:18.138Z,70.20
2018-03-30T01:36:49.598Z,70.60
2018-03-30T01:39:21.558Z,69.80
2018-03-30T01:41:52.598Z,69.80
2018-03-30T01:44:28.789Z,69.80
2018-03-30T01:46:59.798Z,70.20
2018-03-30T01:49:31.858Z,70.00
2018-03-30T01:52:07.499Z,71.00
2018-03-30T01:54:39.358Z,70.60
2018-03-30T01:57:10.818Z,71.20
2018-03-30T01:59:42.678Z,70.60
2018-03-30T02:02:14.838Z,70.50
2018-03-30T02:04:45.479Z,70.50
2018-03-30T02:07:17.018Z,69.90
2018-03-30T02:09:48.358Z,70.50
2018-03-30T02:12:19.720Z,70.10
2018-03-30T02:14:51.160Z,69.60
2018-03-30T02:17:22.199Z,69.80
2018-03-30T02:19:56.318Z,70.60
2018-03-30T02:22:29.398Z,70.60
2018-03-30T02:25:00.138Z,70.90
2018-03-30T02:27:31.078Z,71.10
2018-03-30T02:30:04.867Z,70.40
2018-03-30T02:32:36.338Z,70.30
2018-03-30T02:35:07.679Z,71.10
2018-03-30T02:37:39.908Z,70.20
2018-03-30T02:40:12.219Z,70.50
2018-03-30T02:42:43.919Z,70.60
2018-03-30T02:45:16.139Z,69.90
2018-03-30T02:47:47.498Z,70.20
2018-03-30T02:50:23.538Z,70.80
2018-03-30T02:52:54.678Z,71.10
2018-03-30T02:55:25.840Z,70.60
2018-03-30T02:57:59.022Z,71.20
2018-03-30T03:00:30.278Z,70.10
2018-03-30T03:03:01.845Z,70.40
2018-03-30T03:05:33.280Z,70.40
2018-03-30T03:08:06.258Z,70.60
2018-03-30T03:10:39.917Z,71.20
2018-03-30T03:13:13.137Z,70.50
2018-03-30T03:15:49.297Z,70.50
2018-03-30T03:18:19.898Z,70.50
2018-03-30T03:20:52.096Z,71.40
2018-03-30T03:23:24.777Z,70.40
2018-03-30T03:25:55.877Z,70.40
2018-03-30T03:28:27.997Z,70.80
2018-03-30T03:30:58.877Z,70.40
2018-03-30T03:33:30.579Z,69.90
2018-03-30T03:36:01.619Z,70.40
2018-03-30T03:38:33.797Z,70.40
2018-03-30T03:41:08.627Z,70.20
2018-03-30T03:43:40.277Z,70.00
2018-03-30T03:46:11.836Z,70.00
2018-03-30T03:48:43.479Z,70.60
2018-03-30T03:51:16.157Z,70.70
2018-03-30T03:53:49.857Z,70.30
2018-03-30T03:56:20.597Z,70.20
2018-03-30T03:58:54.197Z,69.70
2018-03-30T04:01:27.897Z,69.40
2018-03-30T04:04:00.377Z,69.60
2018-03-30T04:06:34.997Z,70.00
2018-03-30T04:09:06.917Z,69.80
2018-03-30T04:11:47.897Z,70.00
2018-03-30T04:14:23.937Z,70.60
2018-03-30T04:16:57.077Z,70.60
2018-03-30T04:19:29.256Z,71.10
2018-03-30T04:22:00.377Z,70.30
2018-03-30T04:24:33.676Z,70.20
2018-03-30T04:27:08.298Z,70.40
2018-03-30T04:29:39.860Z,70.10
2018-03-30T04:32:11.897Z,70.20
2018-03-30T04:34:42.758Z,69.80
2018-03-30T04:37:19.236Z,70.60
2018-03-30T04:39:49.897Z,69.90
2018-03-30T04:42:21.517Z,70.20
2018-03-30T04:44:53.156Z,70.30
2018-03-30T04:47:23.996Z,70.10
2018-03-30T04:49:56.264Z,70.50
2018-03-30T04:52:26.977Z,71.30
2018-03-30T04:54:59.166Z,70.70
2018-03-30T04:57:29.897Z,70.90
2018-03-30T05:00:01.657Z,70.40
2018-03-30T05:02:33.216Z,70.10
2018-03-30T05:05:04.857Z,71.30
2018-03-30T05:07:35.799Z,70.60
2018-03-30T05:10:07.257Z,70.10
2018-03-30T05:12:39.616Z,70.00
2018-03-30T05:15:10.256Z,70.00
2018-03-30T05:17:41.297Z,70.00
2018-03-30T05:20:12.737Z,69.70
2018-03-30T05:22:43.877Z,69.50
2018-03-30T05:25:14.517Z,69.50
2018-03-30T05:27:47.397Z,70.10
2018-03-30T05:30:21.296Z,69.90
2018-03-30T05:32:52.897Z,70.00
2018-03-30T05:35:25.336Z,70.00
2018-03-30T05:37:59.237Z,70.40
2018-03-30T05:40:29.916Z,71.30
2018-03-30T05:43:01.916Z,70.60
2018-03-30T05:45:33.957Z,70.50
2018-03-30T05:48:04.917Z,70.50
2018-03-30T05:50:37.517Z,70.50
2018-03-30T05:53:11.316Z,71.10
2018-03-30T05:55:42.939Z,71.20
2018-03-30T05:58:14.836Z,71.50
2018-03-30T06:00:46.496Z,71.00
2018-03-30T06:03:19.937Z,71.60
2018-03-30T06:05:53.277Z,71.10
2018-03-30T06:08:28.417Z,70.90
2018-03-30T06:11:00.077Z,71.40
2018-03-30T06:13:31.217Z,70.50
2018-03-30T06:16:02.758Z,70.50
2018-03-30T06:18:37.177Z,70.50
2018-03-30T06:21:08.737Z,70.30
2018-03-30T06:23:40.957Z,70.60
2018-03-30T06:26:16.857Z,70.10
2018-03-30T06:28:47.957Z,70.60
2018-03-30T06:31:19.757Z,70.40
2018-03-30T06:33:54.277Z,71.10
2018-03-30T06:36:26.917Z,70.80
2018-03-30T06:38:58.917Z,71.20
2018-03-30T06:41:30.678Z,70.80
2018-03-30T06:44:09.855Z,69.80
2018-03-30T06:46:41.777Z,70.30
2018-03-30T06:49:15.878Z,70.00
2018-03-30T06:51:47.737Z,70.00
2018-03-30T06:54:19.602Z,70.10
2018-03-30T06:56:53.903Z,69.90
2018-03-30T06:59:26.597Z,70.10
2018-03-30T07:01:59.078Z,70.20
2018-03-30T07:04:29.908Z,70.40
2018-03-30T07:07:00.911Z,69.60
2018-03-30T07:09:32.593Z,69.80
2018-03-30T07:12:05.893Z,69.20
2018-03-30T07:14:37.853Z,69.50
2018-03-30T07:17:13.293Z,68.50
2018-03-30T07:19:45.560Z,67.60
2018-03-30T07:22:17.619Z,68.50
2018-03-30T07:24:55.920Z,67.30
2018-03-30T07:27:28.098Z,67.10
2018-03-30T07:29:59.859Z,67.40
2018-03-30T07:32:30.399Z,67.40
2018-03-30T07:35:01.218Z,67.70
2018-03-30T07:37:32.458Z,66.70
2018-03-30T07:40:04.918Z,67.00
2018-03-30T07:42:38.538Z,67.00
2018-03-30T07:45:15.518Z,66.50
2018-03-30T07:47:50.238Z,66.40
2018-03-30T07:50:20.944Z,66.30
2018-03-30T07:52:57.929Z,65.10
2018-03-30T07:55:29.415Z,65.10
2018-03-30T07:58:01.475Z,64.40
2018-03-30T08:00:32.414Z,64.20
2018-03-30T08:03:05.195Z,64.90
2018-03-30T08:05:36.755Z,64.20
2018-03-30T08:08:09.635Z,63.60
2018-03-30T08:10:47.415Z,63.40
2018-03-30T08:13:20.936Z,63.10
2018-03-30T08:15:51.657Z,63.10
2018-03-30T08:18:22.488Z,61.60
2018-03-30T08:20:54.456Z,61.10
2018-03-30T08:23:25.797Z,60.40
2018-03-30T08:25:57.936Z,60.10
2018-03-30T08:28:34.555Z,59.60
2018-03-30T08:31:07.215Z,59.10
2018-03-30T08:33:37.944Z,58.80
2018-03-30T08:36:08.896Z,58.60
2018-03-30T08:38:41.477Z,58.60
2018-03-30T08:41:15.297Z,58.30
2018-03-30T08:43:46.997Z,57.80
2018-03-30T08:46:18.955Z,58.40
2018-03-30T08:48:53.515Z,57.90
2018-03-30T08:51:25.475Z,57.40
2018-03-30T08:53:57.336Z,57.80
2018-03-30T08:56:29.921Z,57.70
2018-03-30T08:59:02.496Z,56.90
2018-03-30T09:01:33.221Z,55.10
2018-03-30T09:04:05.381Z,56.00
2018-03-30T09:06:36.624Z,55.80
2018-03-30T09:09:08.681Z,56.30
2018-03-30T09:11:40.142Z,56.80
2018-03-30T09:14:12.321Z,56.50
2018-03-30T09:16:42.935Z,56.50
2018-03-30T09:19:15.935Z,56.70
2018-03-30T09:21:47.894Z,55.70
2018-03-30T09:24:24.674Z,55.90
2018-03-30T09:26:56.217Z,55.90
2018-03-30T09:29:27.779Z,56.30
2018-03-30T09:31:58.598Z,56.70
2018-03-30T09:34:30.055Z,55.00
2018-03-30T09:37:04.274Z,55.10
2018-03-30T09:39:37.356Z,54.90
2018-03-30T09:42:09.116Z,55.00
2018-03-30T09:44:42.417Z,54.70
2018-03-30T09:47:16.737Z,55.00
2018-03-30T09:49:48.596Z,53.30
2018-03-30T09:52:20.236Z,53.50
2018-03-30T09:54:51.376Z,53.40
2018-03-30T09:57:21.389Z,53.40
2018-03-30T09:59:52.650Z,52.00
2018-03-30T10:02:29.616Z,51.60
2018-03-30T10:05:01.489Z,51.40
2018-03-30T10:07:33.549Z,51.60
2018-03-30T10:10:08.273Z,51.80
2018-03-30T10:12:38.809Z,51.80
2018-03-30T10:15:10.658Z,51.10
2018-03-30T10:17:42.418Z,51.30
2018-03-30T10:20:16.639Z,51.90
2018-03-30T10:22:49.521Z,51.20
2018-03-30T10:25:21.178Z,50.00
2018-03-30T10:27:53.738Z,50.30
2018-03-30T10:30:26.978Z,50.20
2018-03-30T10:32:59.959Z,49.20
2018-03-30T10:35:31.578Z,49.70
2018-03-30T10:38:07.957Z,49.80
2018-03-30T10:40:39.178Z,49.90
2018-03-30T10:43:10.217Z,50.00
2018-03-30T10:45:41.082Z,49.60
2018-03-30T10:48:12.977Z,49.40
2018-03-30T10:50:44.077Z,49.60
2018-03-30T10:53:16.216Z,48.50
2018-03-30T10:55:46.657Z,48.90
2018-03-30T10:58:18.978Z,49.30
2018-03-30T11:00:51.498Z,49.20
2018-03-30T11:03:21.938Z,48.60
2018-03-30T11:05:58.818Z,48.00
2018-03-30T11:08:28.978Z,47.90
2018-03-30T11:10:59.658Z,48.30
2018-03-30T11:13:30.795Z,48.50
2018-03-30T11:16:02.955Z,48.20
2018-03-30T11:18:36.959Z,47.20
2018-03-30T11:21:08.539Z,47.50
2018-03-30T11:23:39.461Z,47.10
2018-03-30T11:26:13.381Z,46.40
2018-03-30T11:28:44.982Z,46.40
2018-03-30T11:31:16.062Z,46.60
2018-03-30T11:33:47.941Z,46.10
2018-03-30T11:36:22.451Z,45.90
2018-03-30T11:38:54.095Z,47.10
2018-03-30T11:41:25.455Z,46.00
2018-03-30T11:43:58.654Z,46.10
2018-03-30T11:46:29.794Z,46.40
2018-03-30T11:49:00.834Z,46.30
2018-03-30T11:51:34.934Z,45.90
2018-03-30T11:54:08.435Z,44.70
2018-03-30T11:56:40.095Z,44.90
2018-03-30T11:59:13.277Z,45.00
2018-03-30T12:01:44.416Z,45.70
2018-03-30T12:04:15.454Z,45.00
2018-03-30T12:06:46.955Z,45.40
2018-03-30T12:09:19.276Z,45.30
2018-03-30T12:11:50.314Z,45.80
2018-03-30T12:14:22.294Z,45.10
2018-03-30T12:16:54.653Z,45.00
2018-03-30T12:19:26.714Z,45.00
2018-03-30T12:21:57.973Z,45.00
2018-03-30T12:24:30.954Z,45.00
2018-03-30T12:27:02.494Z,44.40
2018-03-30T12:29:33.453Z,44.30
2018-03-30T12:32:04.075Z,43.80
2018-03-30T12:34:37.174Z,44.20
2018-03-30T12:37:10.782Z,44.30
2018-03-30T12:39:44.019Z,44.30
2018-03-30T12:42:16.994Z,43.20
2018-03-30T12:44:48.493Z,43.00
2018-03-30T12:47:19.535Z,42.90
2018-03-30T12:49:50.277Z,42.50
2018-03-30T12:52:21.814Z,41.80
2018-03-30T12:54:54.293Z,41.30
2018-03-30T12:57:25.935Z,41.30
2018-03-30T12:59:55.953Z,41.90
2018-03-30T13:02:34.573Z,41.80
2018-03-30T13:05:06.234Z,41.60
2018-03-30T13:07:37.372Z,42.00
2018-03-30T13:10:15.992Z,41.00
2018-03-30T13:12:47.852Z,40.90
2018-03-30T13:15:25.456Z,40.50
2018-03-30T13:17:58.112Z,40.70
2018-03-30T13:20:29.702Z,39.60
2018-03-30T13:23:00.112Z,40.10
2018-03-30T13:25:31.343Z,39.50
2018-03-30T13:28:02.984Z,39.40
2018-03-30T13:30:40.591Z,37.50
2018-03-30T13:33:13.591Z,37.40
2018-03-30T13:35:45.229Z,37.30
2018-03-30T13:38:17.810Z,35.80
2018-03-30T13:40:48.849Z,36.00
2018-03-30T13:43:19.490Z,34.80
2018-03-30T13:45:50.418Z,34.30
2018-03-30T13:48:21.870Z,35.60
2018-03-30T13:50:59.569Z,35.80
2018-03-30T13:53:42.389Z,36.60
2018-03-30T13:56:45.930Z,35.80
2018-03-30T13:59:21.950Z,36.50
2018-03-30T14:05:14.991Z,36.60
2018-03-30T14:08:06.749Z,36.90
2018-03-30T14:10:45.990Z,36.90
2018-03-30T14:13:18.870Z,36.60
2018-03-30T14:15:56.448Z,38.20
2018-03-30T14:18:35.290Z,39.20
2018-03-30T14:21:30.030Z,39.20
2018-03-30T14:24:05.109Z,36.10
2018-03-30T14:26:46.710Z,36.10
2018-03-30T14:29:21.061Z,35.80
2018-03-30T14:32:02.290Z,34.90
2018-03-30T14:34:36.842Z,35.40
2018-03-30T14:37:26.790Z,35.40
2018-03-30T14:40:18.993Z,35.60
2018-03-30T14:42:55.712Z,35.60
2018-03-30T14:45:30.755Z,35.40
2018-03-30T14:48:13.652Z,34.50
2018-03-30T14:50:45.003Z,34.90
2018-03-30T14:53:19.949Z,35.50
2018-03-30T14:55:55.288Z,35.30
2018-03-30T14:58:29.688Z,35.30
2018-03-30T15:04:13.479Z,36.10
2018-03-30T15:06:48.611Z,35.40
2018-03-30T15:09:23.531Z,34.90
2018-03-30T15:12:18.150Z,34.90
2018-03-30T15:14:55.932Z,35.70
2018-03-30T15:17:33.610Z,35.60
2018-03-30T15:20:22.050Z,34.10
2018-03-30T15:22:54.652Z,33.60
2018-03-30T15:25:40.745Z,33.60
2018-03-30T15:28:14.432Z,33.50
2018-03-30T15:30:57.351Z,33.80
2018-03-30T15:33:32.050Z,33.60
2018-03-30T15:36:05.891Z,33.80
2018-03-30T15:38:40.811Z,32.70
2018-03-30T15:41:13.710Z,32.40
2018-03-30T15:43:49.010Z,32.40
2018-03-30T15:46:55.012Z,33.20
2018-03-30T15:49:27.572Z,33.10
2018-03-30T15:52:06.050Z,32.20
2018-03-30T15:54:37.638Z,32.70
2018-03-30T15:57:09.511Z,32.40
2018-03-30T15:59:40.550Z,32.20
2018-03-30T16:02:12.910Z,32.20
2018-03-30T16:04:44.992Z,32.10
2018-03-30T16:07:16.851Z,32.80
2018-03-30T16:09:49.070Z,32.10
2018-03-30T16:12:21.990Z,33.00
2018-03-30T16:14:52.310Z,33.00
2018-03-30T16:17:25.611Z,32.80
2018-03-30T16:19:57.172Z,32.40
2018-03-30T16:22:29.731Z,32.50
2018-03-30T16:25:02.755Z,32.40
2018-03-30T16:27:33.870Z,32.80
2018-03-30T16:30:05.930Z,32.70
2018-03-30T16:32:37.290Z,32.70
2018-03-30T16:35:12.717Z,33.10
2018-03-30T16:37:44.790Z,33.20
2018-03-30T16:40:15.632Z,33.20
2018-03-30T16:42:52.011Z,33.50
2018-03-30T16:45:24.250Z,33.50
2018-03-30T16:47:54.990Z,33.50
2018-03-30T16:50:26.030Z,33.80
2018-03-30T16:52:58.610Z,34.00
2018-03-30T16:55:28.930Z,33.90
2018-03-30T16:58:00.491Z,33.80
2018-03-30T17:00:35.310Z,35.30
2018-03-30T17:03:06.150Z,36.90
2018-03-30T17:05:38.911Z,36.90
2018-03-30T17:08:09.970Z,41.00
2018-03-30T17:10:40.491Z,43.80
2018-03-30T17:13:10.930Z,44.50
2018-03-30T17:15:42.371Z,44.90
2018-03-30T17:18:11.571Z,44.90
2018-03-30T17:20:42.512Z,45.00
2018-03-30T17:23:12.729Z,45.10
2018-03-30T17:25:48.371Z,45.60
2018-03-30T17:28:18.910Z,45.10
2018-03-30T17:30:49.631Z,45.70
2018-03-30T17:33:22.312Z,46.80
2018-03-30T17:35:52.230Z,46.90
2018-03-30T17:38:22.851Z,47.90
2018-03-30T17:40:54.611Z,48.10
2018-03-30T17:43:28.211Z,48.50
2018-03-30T17:45:58.970Z,49.00
2018-03-30T17:48:29.897Z,48.90
2018-03-30T17:51:00.010Z,48.50
2018-03-30T17:53:30.090Z,48.40
2018-03-30T17:56:03.210Z,48.50
2018-03-30T17:58:35.909Z,48.20
2018-03-30T18:01:06.010Z,48.50
2018-03-30T18:03:37.570Z,49.50
2018-03-30T18:06:08.769Z,50.00
2018-03-30T18:08:42.030Z,50.50
2018-03-30T18:11:19.031Z,50.40
2018-03-30T18:13:49.710Z,50.30
2018-03-30T18:16:19.931Z,51.50
2018-03-30T18:18:51.171Z,52.50
2018-03-30T18:21:26.011Z,52.90
2018-03-30T18:23:59.911Z,53.20
2018-03-30T18:26:30.031Z,53.40
2018-03-30T18:29:05.029Z,55.10
2018-03-30T18:31:39.031Z,55.10
2018-03-30T18:34:13.030Z,55.90
2018-03-30T18:36:44.750Z,56.40
2018-03-30T18:39:19.971Z,56.40
2018-03-30T18:41:49.691Z,56.40
2018-03-30T18:44:20.957Z,57.40
2018-03-30T18:46:51.050Z,58.70
2018-03-30T18:49:21.292Z,58.50
2018-03-30T18:51:51.812Z,59.30
2018-03-30T18:54:26.430Z,60.90
2018-03-30T18:57:01.471Z,60.70
2018-03-30T18:59:32.031Z,60.30
2018-03-30T19:02:05.290Z,62.00
2018-03-30T19:04:36.330Z,62.50
2018-03-30T19:07:11.370Z,62.10
2018-03-30T19:09:42.292Z,62.10
2018-03-30T19:12:13.331Z,64.00
2018-03-30T19:14:44.171Z,64.90
2018-03-30T19:17:14.812Z,64.50
2018-03-30T19:19:45.630Z,65.00
2018-03-30T19:22:20.676Z,66.10
2018-03-30T19:24:51.811Z,66.10
2018-03-30T19:27:27.772Z,65.20
2018-03-30T19:30:01.672Z,65.10
2018-03-30T19:32:32.730Z,65.30
2018-03-30T19:35:03.650Z,66.70
2018-03-30T19:37:37.957Z,66.40
2018-03-30T19:40:12.611Z,67.40
2018-03-30T19:42:46.611Z,67.40
2018-03-30T19:45:17.030Z,65.60
2018-03-30T19:47:51.771Z,63.90
2018-03-30T19:50:23.211Z,64.40
2018-03-30T19:52:53.750Z,62.60
2018-03-30T19:55:30.630Z,62.40
2018-03-30T19:58:01.090Z,62.50
2018-03-30T20:00:32.051Z,64.20
2018-03-30T20:03:01.272Z,63.70
2018-03-30T20:05:31.911Z,62.60
2018-03-30T20:08:02.530Z,62.20
2018-03-30T20:10:34.291Z,62.20
2018-03-30T20:13:10.051Z,61.70
2018-03-30T20:15:39.450Z,61.60
2018-03-30T20:18:14.051Z,62.80
2018-03-30T20:20:44.091Z,61.10
2018-03-30T20:23:18.935Z,61.60
2018-03-30T20:25:55.053Z,61.60
2018-03-30T20:28:27.252Z,62.60
2018-03-30T20:31:01.252Z,63.30
2018-03-30T20:33:31.570Z,63.30
2018-03-30T20:36:00.772Z,62.00
2018-03-30T20:38:30.790Z,64.30
2018-03-30T20:41:03.790Z,63.80
2018-03-30T20:43:38.072Z,62.60
2018-03-30T20:46:09.450Z,63.50
2018-03-30T20:48:40.171Z,63.40
2018-03-30T20:51:10.610Z,63.90
2018-03-30T20:53:43.071Z,63.10
2018-03-30T20:56:14.072Z,63.00
2018-03-30T20:58:44.951Z,62.70
2018-03-30T21:01:15.692Z,62.10
2018-03-30T21:03:48.771Z,62.30
2018-03-30T21:06:19.910Z,62.60
2018-03-30T21:08:50.951Z,63.00
2018-03-30T21:11:22.071Z,63.00
2018-03-30T21:13:50.891Z,62.30
2018-03-30T21:16:22.071Z,61.90
2018-03-30T21:18:53.070Z,63.10
2018-03-30T21:21:28.197Z,62.90
2018-03-30T21:24:03.550Z,62.90
2018-03-30T21:26:34.471Z,63.90
2018-03-30T21:29:07.250Z,63.20
2018-03-30T21:31:40.651Z,65.30
2018-03-30T21:34:14.970Z,65.30
2018-03-30T21:36:46.730Z,63.90
2018-03-30T21:39:17.010Z,64.60
2018-03-30T21:41:47.590Z,64.60
2018-03-30T21:44:16.070Z,65.80
2018-03-30T21:46:47.631Z,67.00
2018-03-30T21:49:18.450Z,65.90
2018-03-30T21:51:54.072Z,65.40
2018-03-30T21:54:27.613Z,65.40
2018-03-30T21:56:58.530Z,65.50
2018-03-30T21:59:32.069Z,66.10
2018-03-30T22:02:03.291Z,67.70
2018-03-30T22:04:35.450Z,68.70
2018-03-30T22:07:10.590Z,68.10
2018-03-30T22:09:45.072Z,68.10
2018-03-30T22:12:17.671Z,66.40
2018-03-30T22:14:51.490Z,65.90
2018-03-30T22:17:24.778Z,65.90
2018-03-30T22:19:56.092Z,66.90
2018-03-30T22:22:28.710Z,65.70
2018-03-30T22:24:59.330Z,66.10
2018-03-30T22:27:29.970Z,66.80
2018-03-30T22:30:03.773Z,67.30
2018-03-30T22:32:36.750Z,67.30
2018-03-30T22:35:07.389Z,65.60
2018-03-30T22:37:38.030Z,66.30
2018-03-30T22:40:08.949Z,67.00
2018-03-30T22:42:39.109Z,66.40
2018-03-30T22:45:13.810Z,68.20
2018-03-30T22:47:46.781Z,68.10
2018-03-30T22:50:17.310Z,68.00
2018-03-30T22:52:47.750Z,68.50
2018-03-30T22:55:18.989Z,68.90
2018-03-30T22:57:49.609Z,67.90
2018-03-30T23:00:19.829Z,68.20
2018-03-30T23:02:55.090Z,68.20
2018-03-30T23:05:25.710Z,68.50
2018-03-30T23:07:59.090Z,68.50
2018-03-30T23:10:30.090Z,66.90
2018-03-30T23:13:01.130Z,66.70
2018-03-30T23:15:36.090Z,66.50
2018-03-30T23:18:07.356Z,66.40
2018-03-30T23:20:38.105Z,67.10
2018-03-30T23:23:08.625Z,67.10
2018-03-30T23:25:38.536Z,67.00
2018-03-30T23:28:10.496Z,66.90
2018-03-30T23:30:41.637Z,67.70
2018-03-30T23:33:12.096Z,68.60
2018-03-30T23:35:45.978Z,68.60
2018-03-30T23:38:19.964Z,69.10
2018-03-30T23:40:55.516Z,69.20
2018-03-30T23:43:26.156Z,68.60
2018-03-30T23:45:56.796Z,67.60
2018-03-30T23:48:32.097Z,66.60
2018-03-30T23:51:02.458Z,66.60
2018-03-30T23:53:33.797Z,66.90
2018-03-30T23:56:08.516Z,65.60
2018-03-30T23:58:38.958Z,65.60
